Briefing drone pour Rouillac

Rechercher une autre localisation

Conditions de vol :


Nous sommes le : Mardi 16 août 2022
Il est 00:50 UTC (02:50 LT)

Lever de soleil : 04:35 UTC (06:35 LT)
Coucher de soleil : 19:33 UTC (21:33 LT)


Warning: min(): Array must contain at least one element in /homepages/6/d509196549/htdocs/briefdrone/includes/function/metar/metar.php on line 1265

Météo

L'essentiel des conditions de vol

VIGILANCE MÉTÉO FRANCE - Charente (16)
Vigilance Jaune : Orages
CARTE TEMSI
CARTES DES FRONTS
METAR de LFBU
LFBU 160030Z AUTO 15003KT 9999 ////// 17/15 Q1009

Date d'émission: 16/08/2022
Heure d'émission: 00:30 UTC
Vent: 150° pour 3 KT (6 km/h)
Visibilité horizontale: > 10 km
Température: 17 °C
Point de rosée: 15 °C
Humidité: 88%
Pression (QNH): 1009 hPa
TAF de LFBU
AMD LFBU 152102Z 1521/1618 CNL

Conditions prévues :

Heure d'émission : Bulletin éffectué le 15 à 21:00 UTC
Prévision : Valide du 15 a 21:00 UTC au 16 a 18:00 UTC
Nuages : à 0ft (0 m)
WEBCAM POUR ROUILLAC

Réglementation

Voler en sécurité

CARTES AERONAUTIQUE 1/500.000
CARTE AZBA (Reseau basse altitude)
CARTES VAC (LFBU)
SUP AIP




Chargement des AIP...
NOTAM (ROUILLAC + Terrain à proximité / FIR )




Chargement des NOTAMS...
CONTACT PREFECTURE 16


Avertissement : Les données mises à disposition sont indicatives. Oxygène Drone ne pourra être tenu responsable de dégâts causés aux biens et aux personnes.